Preflight/Weather

The current temperature at Deer Valley airport is 13°C  or 55°F

Deer Valley Metar:

KDVT 261653Z 02011KT 10SM CLR 13/M12 A3044 RMK AO2 SLP301 T01331122

Terminal Area Forecast for Phoenix:

TAF KPHX 261720Z 2618/2724 06010KT P6SM SKC TEMPO 2618/2622 06010G18KT FM262200 07007KT P6SM SKC FM272200 VRB04KT P6SM FEW250